Huvudsida
METAR-TAF:

METAR-TAF

Flygplatser :

Kish Island International Airport

Kish, Iran

latitud: 26-31-36N, longitud: 053-58-54E, höjd: 30 m

Aktuellt väderrapport

Denna rapport gjordes för 58 minuter sedan, klockan 12:00 UTC
Vind 6 kt från sydost
Temperatur 28°C
Fuktighet 35%
Tryck 1014 hPa
Sikt 10 km eller mer
Inga moln under 1 500 m eller inga cumulonimbus

METAR: OIBK 121200Z 13006KT CAVOK 28/11 Q1014

Tid: 16:28 (12:58 UTC)

Väderprognos

Denna rapport gjordes för 1 timme och 38 minuter sedan, klockan 11:20 UTC
Prognos gäller från 12 kl. 12 UTC till 13 kl. 18 UTC
Vind 8 kt från ost/nordost
Sikt 10 km eller mer
Inga moln under 1 500 m eller inga cumulonimbus

TAF: OIBK 121120Z 1212/1318 06008KT CAVOK

Aktuella väderrapporter och prognoser från 4000 flygplatser (METAR- och TAF-rapporter).

De tillgängliga stationerna syns som gula och röda prickar på kartan.

För musen över prickarna för att se namnen på stationerna.

Klicka sedan för att få väderrapporter och prognoser.

För att ändra kartan: Klicka på de gröna knapparna med ett svart kors på för att zooma in; den gröna knappen med ett streck på för att zooma ut; eller på de gröna pilarna för angränsande kartor.


METAR-TAF: